createdAt,value
2019-04-14T00:01:41.252Z,10.62
2019-04-14T00:04:27.318Z,10.52
2019-04-14T00:06:56.939Z,10.65
2019-04-14T00:09:25.559Z,10.71
2019-04-14T00:11:54.852Z,10.78
2019-04-14T00:14:23.561Z,10.48
2019-04-14T00:16:53.191Z,10.61
2019-04-14T00:19:21.894Z,10.84
2019-04-14T00:21:50.532Z,10.80
2019-04-14T00:24:20.533Z,10.54
2019-04-14T00:26:49.260Z,10.61
2019-04-14T00:29:17.773Z,10.44
2019-04-14T00:31:47.459Z,10.66
2019-04-14T00:34:44.736Z,10.37
2019-04-14T00:37:22.657Z,10.54
2019-04-14T00:39:53.325Z,10.31
2019-04-14T00:42:53.800Z,10.53
2019-04-14T00:45:37.022Z,10.54
2019-04-14T00:48:09.064Z,10.54
2019-04-14T00:50:32.284Z,10.57
2019-04-14T00:53:01.204Z,10.34
2019-04-14T00:55:29.773Z,10.36
2019-04-14T00:57:59.453Z,10.44
2019-04-14T01:00:28.108Z,10.45
2019-04-14T01:02:56.631Z,10.48
2019-04-14T01:05:26.252Z,10.61
2019-04-14T01:07:54.866Z,10.51
2019-04-14T01:10:23.631Z,10.42
2019-04-14T01:12:52.228Z,10.51
2019-04-14T01:15:20.762Z,10.30
2019-04-14T01:17:49.267Z,10.27
2019-04-14T01:20:18.839Z,10.24
2019-04-14T01:22:48.764Z,10.30
2019-04-14T01:25:17.300Z,10.45
2019-04-14T01:27:45.798Z,10.42
2019-04-14T01:30:15.408Z,10.18
2019-04-14T01:32:43.931Z,10.33
2019-04-14T01:35:12.339Z,10.23
2019-04-14T01:37:41.892Z,10.41
2019-04-14T01:40:10.452Z,10.31
2019-04-14T01:42:39.882Z,10.38
2019-04-14T01:45:10.793Z,10.43
2019-04-14T01:47:40.253Z,10.51
2019-04-14T01:50:09.131Z,10.22
2019-04-14T01:52:46.609Z,10.26
2019-04-14T01:55:41.628Z,10.07
2019-04-14T01:58:22.881Z,10.32
2019-04-14T02:01:11.252Z,10.20
2019-04-14T02:03:40.958Z,10.14
2019-04-14T02:06:09.796Z,10.40
2019-04-14T02:08:39.619Z,10.34
2019-04-14T02:11:09.381Z,10.24
2019-04-14T02:13:39.576Z,10.13
2019-04-14T02:16:18.799Z,10.17
2019-04-14T02:18:40.462Z,10.18
2019-04-14T02:21:10.648Z,10.37
2019-04-14T02:23:39.568Z,10.36
2019-04-14T02:26:09.131Z,10.20
2019-04-14T02:28:37.890Z,10.18
2019-04-14T02:31:19.405Z,10.11
2019-04-14T02:33:58.743Z,10.20
2019-04-14T02:39:12.011Z,10.03
2019-04-14T02:41:39.862Z,9.93
2019-04-14T02:44:22.973Z,10.02
2019-04-14T02:46:45.878Z,10.22
2019-04-14T02:49:08.193Z,10.25
2019-04-14T02:51:33.531Z,10.34
2019-04-14T02:56:35.721Z,10.18
2019-04-14T02:59:14.749Z,10.05
2019-04-14T03:01:55.125Z,10.15
2019-04-14T03:04:12.732Z,10.29
2019-04-14T03:06:40.860Z,9.89
2019-04-14T03:09:20.598Z,10.07
2019-04-14T03:14:15.538Z,10.21
2019-04-14T03:17:19.265Z,10.15
2019-04-14T03:19:56.516Z,10.14
2019-04-14T03:22:37.163Z,10.15
2019-04-14T03:25:34.047Z,10.03
2019-04-14T03:28:30.518Z,10.06
2019-04-14T03:43:46.590Z,10.19
2019-04-14T03:46:27.444Z,10.05
2019-04-14T03:51:26.323Z,10.03
2019-04-14T03:53:53.303Z,9.90
2019-04-14T03:56:57.702Z,10.02
2019-04-14T03:59:26.399Z,9.98
2019-04-14T04:01:56.448Z,9.89
2019-04-14T04:04:25.301Z,10.02
2019-04-14T04:06:55.219Z,9.99
2019-04-14T04:09:34.601Z,10.08
2019-04-14T04:12:03.335Z,10.18
2019-04-14T04:14:33.369Z,10.16
2019-04-14T04:17:25.449Z,10.04
2019-04-14T04:20:13.663Z,10.04
2019-04-14T04:23:03.045Z,10.02
2019-04-14T04:25:52.957Z,9.91
2019-04-14T04:28:45.097Z,9.98
2019-04-14T04:31:22.029Z,9.97
2019-04-14T04:33:54.810Z,10.01
2019-04-14T04:36:44.142Z,9.88
2019-04-14T04:39:23.597Z,9.93
2019-04-14T04:41:52.229Z,9.90
2019-04-14T04:44:22.320Z,9.86
2019-04-14T04:46:52.621Z,9.82
2019-04-14T04:49:24.867Z,10.06
2019-04-14T04:51:53.065Z,10.10
2019-04-14T04:54:22.005Z,10.06
2019-04-14T04:56:51.579Z,10.03
2019-04-14T04:59:21.295Z,9.81
2019-04-14T05:01:51.546Z,9.89
2019-04-14T05:04:21.731Z,9.81
2019-04-14T05:07:01.290Z,9.94
2019-04-14T05:09:56.098Z,9.82
2019-04-14T05:12:35.511Z,9.95
2019-04-14T05:15:40.559Z,9.76
2019-04-14T05:18:13.960Z,9.90
2019-04-14T05:20:42.674Z,9.79
2019-04-14T05:23:12.522Z,9.95
2019-04-14T05:25:43.031Z,9.92
2019-04-14T05:28:11.879Z,9.95
2019-04-14T05:30:41.508Z,9.98
2019-04-14T05:33:11.979Z,10.07
2019-04-14T05:35:42.111Z,9.83
2019-04-14T05:38:11.118Z,10.06
2019-04-14T05:40:40.835Z,10.13
2019-04-14T05:43:09.717Z,10.06
2019-04-14T05:45:39.540Z,9.94
2019-04-14T05:48:09.621Z,10.00
2019-04-14T05:50:39.992Z,9.81
2019-04-14T05:53:08.916Z,9.85
2019-04-14T05:55:37.529Z,9.95
2019-04-14T05:58:06.366Z,10.01
2019-04-14T06:00:36.397Z,9.93
2019-04-14T06:03:05.961Z,9.88
2019-04-14T06:05:36.071Z,9.96
2019-04-14T06:08:05.146Z,9.92
2019-04-14T06:10:34.406Z,10.02
2019-04-14T06:13:03.166Z,9.97
2019-04-14T06:15:32.570Z,9.89
2019-04-14T06:18:01.927Z,9.96
2019-04-14T06:20:30.740Z,9.98
2019-04-14T06:22:59.458Z,10.04
2019-04-14T06:25:28.414Z,9.94
2019-04-14T06:27:57.238Z,10.18
2019-04-14T06:30:43.978Z,10.07
2019-04-14T06:33:41.336Z,10.14
2019-04-14T06:36:35.210Z,10.17
2019-04-14T06:39:09.758Z,10.22
2019-04-14T06:41:38.461Z,10.31
2019-04-14T06:44:07.096Z,10.12
2019-04-14T06:46:35.836Z,10.06
2019-04-14T06:49:04.823Z,10.20
2019-04-14T06:51:33.519Z,10.22
2019-04-14T06:54:02.236Z,10.18
2019-04-14T06:56:31.057Z,10.25
2019-04-14T06:59:00.066Z,10.22
2019-04-14T07:01:28.776Z,10.21
2019-04-14T07:03:57.624Z,10.22
2019-04-14T07:06:27.019Z,10.14
2019-04-14T07:08:55.753Z,10.20
2019-04-14T07:11:24.759Z,10.31
2019-04-14T07:13:53.780Z,10.34
2019-04-14T07:16:22.512Z,10.38
2019-04-14T07:18:51.325Z,10.48
2019-04-14T07:21:20.038Z,10.59
2019-04-14T07:23:48.656Z,10.65
2019-04-14T07:26:17.265Z,10.60
2019-04-14T07:28:56.190Z,10.59
2019-04-14T07:31:35.821Z,10.72
2019-04-14T07:34:39.091Z,10.72
2019-04-14T07:37:25.502Z,10.61
2019-04-14T07:39:57.342Z,10.79
2019-04-14T07:42:51.585Z,10.67
2019-04-14T07:45:24.300Z,10.75
2019-04-14T07:48:21.165Z,10.77
2019-04-14T07:51:09.213Z,10.83
2019-04-14T07:53:48.147Z,10.89
2019-04-14T07:56:38.747Z,10.88
2019-04-14T07:59:13.357Z,10.87
2019-04-14T08:02:04.540Z,11.01
2019-04-14T08:04:35.763Z,10.96
2019-04-14T08:07:04.245Z,11.02
2019-04-14T08:09:32.869Z,11.01
2019-04-14T08:12:01.387Z,11.03
2019-04-14T08:14:29.845Z,10.97
2019-04-14T08:16:58.347Z,11.04
2019-04-14T08:19:26.856Z,11.18
2019-04-14T08:21:55.375Z,11.09
2019-04-14T08:24:23.884Z,11.12
2019-04-14T08:26:52.391Z,11.16
2019-04-14T08:29:20.907Z,11.22
2019-04-14T08:31:49.502Z,11.28
2019-04-14T08:34:18.049Z,11.28
2019-04-14T08:36:46.707Z,11.25
2019-04-14T08:39:15.222Z,11.44
2019-04-14T08:42:06.155Z,11.59
2019-04-14T08:44:42.752Z,11.43
2019-04-14T08:47:39.756Z,11.47
2019-04-14T08:50:38.711Z,11.64
2019-04-14T08:53:01.206Z,11.55
2019-04-14T08:55:49.265Z,11.53
2019-04-14T08:58:36.219Z,11.57
2019-04-14T09:01:20.977Z,11.59
2019-04-14T09:04:11.672Z,11.73
2019-04-14T09:07:05.562Z,11.75
2019-04-14T09:09:38.661Z,11.81
2019-04-14T09:12:15.777Z,11.78
2019-04-14T09:14:41.213Z,11.77
2019-04-14T09:17:09.922Z,11.72
2019-04-14T09:19:38.505Z,11.72
2019-04-14T09:22:07.160Z,11.55
2019-04-14T09:24:36.304Z,11.64
2019-04-14T09:27:04.843Z,11.72
2019-04-14T09:29:33.471Z,11.82
2019-04-14T09:32:02.445Z,11.62
2019-04-14T09:34:31.128Z,11.80
2019-04-14T09:36:59.802Z,12.02
2019-04-14T09:39:28.446Z,11.81
2019-04-14T09:41:57.140Z,11.85
2019-04-14T09:44:25.670Z,11.93
2019-04-14T09:46:54.085Z,11.94
2019-04-14T09:49:22.658Z,11.95
2019-04-14T09:51:51.206Z,12.49
2019-04-14T09:54:19.726Z,12.72
2019-04-14T09:56:48.280Z,12.69
2019-04-14T09:59:16.803Z,12.73
2019-04-14T10:01:45.474Z,12.78
2019-04-14T10:04:14.128Z,12.91
2019-04-14T10:06:42.595Z,13.06
2019-04-14T10:09:11.377Z,13.03
2019-04-14T10:11:48.384Z,13.00
2019-04-14T10:14:10.616Z,12.85
2019-04-14T10:16:39.066Z,12.74
2019-04-14T10:19:07.704Z,12.78
2019-04-14T10:21:36.332Z,12.95
2019-04-14T10:24:04.852Z,13.04
2019-04-14T10:26:33.375Z,13.18
2019-04-14T10:29:01.909Z,13.19
2019-04-14T10:31:30.484Z,13.15
2019-04-14T10:33:58.916Z,13.07
2019-04-14T10:36:27.556Z,13.36
2019-04-14T10:38:56.284Z,13.02
2019-04-14T10:41:24.755Z,13.07
2019-04-14T10:43:53.397Z,13.17
2019-04-14T10:46:21.936Z,12.95
2019-04-14T10:48:50.432Z,12.80
2019-04-14T10:51:29.381Z,12.91
2019-04-14T10:53:49.819Z,12.84
2019-04-14T10:56:18.602Z,12.90
2019-04-14T10:58:47.322Z,12.81
2019-04-14T11:01:16.192Z,12.97
2019-04-14T11:03:44.910Z,13.03
2019-04-14T11:06:22.909Z,13.11
2019-04-14T11:08:51.535Z,13.05
2019-04-14T11:11:20.266Z,13.20
2019-04-14T11:13:49.083Z,13.18
2019-04-14T11:16:17.933Z,13.09
2019-04-14T11:18:46.647Z,13.24
2019-04-14T11:21:15.398Z,13.33
2019-04-14T11:23:45.507Z,13.47
2019-04-14T11:26:14.352Z,13.43
2019-04-14T11:28:42.988Z,13.54
2019-04-14T11:31:12.757Z,13.52
2019-04-14T11:34:00.288Z,13.53
2019-04-14T11:36:57.029Z,13.48
2019-04-14T11:39:26.002Z,13.61
2019-04-14T11:41:54.640Z,13.51
2019-04-14T11:44:23.261Z,13.49
2019-04-14T11:46:51.987Z,13.58
2019-04-14T11:49:20.498Z,13.63
2019-04-14T11:51:55.104Z,13.57
2019-04-14T11:54:19.292Z,13.46
2019-04-14T11:56:47.675Z,13.72
2019-04-14T11:59:18.067Z,13.80
2019-04-14T12:02:12.127Z,13.77
2019-04-14T12:05:00.231Z,13.60
2019-04-14T12:07:35.168Z,13.71
2019-04-14T12:10:07.448Z,13.73
2019-04-14T12:12:36.184Z,13.61
2019-04-14T12:15:07.721Z,13.52
2019-04-14T12:17:36.267Z,13.66
2019-04-14T12:20:06.629Z,13.75
2019-04-14T12:22:35.176Z,13.75
2019-04-14T12:25:04.698Z,13.88
2019-04-14T12:27:33.228Z,13.92
2019-04-14T12:30:01.710Z,13.77
2019-04-14T12:32:30.346Z,13.85
2019-04-14T12:34:58.879Z,13.67
2019-04-14T12:37:27.519Z,13.81
2019-04-14T12:39:56.004Z,13.74
2019-04-14T12:42:43.131Z,13.68
2019-04-14T12:45:43.543Z,13.50
2019-04-14T12:48:49.537Z,13.44
2019-04-14T12:51:25.243Z,13.37
2019-04-14T12:53:53.827Z,13.32
2019-04-14T12:56:25.076Z,13.37
2019-04-14T12:59:15.898Z,13.37
2019-04-14T13:02:04.490Z,13.33
2019-04-14T13:04:33.137Z,13.29
2019-04-14T13:07:01.756Z,13.08
2019-04-14T13:09:31.379Z,13.06
2019-04-14T13:12:00.009Z,13.03
2019-04-14T13:14:28.456Z,13.15
2019-04-14T13:16:56.961Z,13.26
2019-04-14T13:19:25.677Z,13.42
2019-04-14T13:21:54.222Z,13.44
2019-04-14T13:24:31.994Z,13.35
2019-04-14T13:27:00.527Z,13.56
2019-04-14T13:29:28.959Z,13.47
2019-04-14T13:31:57.412Z,13.45
2019-04-14T13:34:25.949Z,13.51
2019-04-14T13:36:54.359Z,13.64
2019-04-14T13:39:22.883Z,13.63
2019-04-14T13:41:51.477Z,13.63
2019-04-14T13:44:19.989Z,13.69
2019-04-14T13:46:48.493Z,13.78
2019-04-14T13:49:17.197Z,13.73
2019-04-14T13:51:45.815Z,13.66
2019-04-14T13:54:14.461Z,13.77
2019-04-14T13:56:42.983Z,13.70
2019-04-14T13:59:11.456Z,13.78
2019-04-14T14:01:40.003Z,13.73
2019-04-14T14:04:08.628Z,13.63
2019-04-14T14:06:37.243Z,13.79
2019-04-14T14:09:10.205Z,13.90
2019-04-14T14:11:58.361Z,13.89
2019-04-14T14:14:49.042Z,13.98
2019-04-14T14:17:40.059Z,13.96
2019-04-14T14:20:13.419Z,13.87
2019-04-14T14:23:16.359Z,13.87
2019-04-14T14:25:48.809Z,13.88
2019-04-14T14:28:17.327Z,13.87
2019-04-14T14:30:45.846Z,13.71
2019-04-14T14:33:14.405Z,13.79
2019-04-14T14:35:42.973Z,13.75
2019-04-14T14:38:11.635Z,13.76
2019-04-14T14:40:40.140Z,13.79
2019-04-14T14:43:08.775Z,13.89
2019-04-14T14:46:02.776Z,13.90
2019-04-14T14:48:34.889Z,13.82
2019-04-14T14:51:25.887Z,13.79
2019-04-14T14:53:54.515Z,13.83
2019-04-14T14:56:23.141Z,13.73
2019-04-14T14:58:51.543Z,13.73
2019-04-14T15:01:19.974Z,13.74
2019-04-14T15:03:48.488Z,13.77
2019-04-14T15:06:17.050Z,13.80
2019-04-14T15:08:45.495Z,13.80
2019-04-14T15:11:14.158Z,13.83
2019-04-14T15:13:42.794Z,13.68
2019-04-14T15:16:11.463Z,13.71
2019-04-14T15:18:40.011Z,13.84
2019-04-14T15:21:08.451Z,13.77
2019-04-14T15:23:36.887Z,13.61
2019-04-14T15:26:05.436Z,13.70
2019-04-14T15:28:33.940Z,13.73
2019-04-14T15:31:02.534Z,13.78
2019-04-14T15:33:31.172Z,13.75
2019-04-14T15:35:59.916Z,13.67
2019-04-14T15:38:28.452Z,13.69
2019-04-14T15:40:57.135Z,13.59
2019-04-14T15:43:25.679Z,13.55
2019-04-14T15:45:54.226Z,13.61
2019-04-14T15:48:22.759Z,13.61
2019-04-14T15:50:51.515Z,13.64
2019-04-14T15:53:20.477Z,13.54
2019-04-14T15:55:49.353Z,13.44
2019-04-14T15:58:38.743Z,13.52
2019-04-14T16:01:31.917Z,13.38
2019-04-14T16:04:09.584Z,13.31
2019-04-14T16:06:53.796Z,13.46
2019-04-14T16:09:42.087Z,13.38
2019-04-14T16:12:39.217Z,13.44
2019-04-14T16:15:26.712Z,13.42
2019-04-14T16:18:23.516Z,13.51
2019-04-14T16:20:52.043Z,13.37
2019-04-14T16:23:20.584Z,13.29
2019-04-14T16:26:23.822Z,13.19
2019-04-14T16:29:02.531Z,13.39
2019-04-14T16:31:49.583Z,13.43
2019-04-14T16:34:24.822Z,13.31
2019-04-14T16:36:53.285Z,13.53
2019-04-14T16:39:21.901Z,13.48
2019-04-14T16:41:50.407Z,13.26
2019-04-14T16:44:19.325Z,13.19
2019-04-14T16:46:47.995Z,13.18
2019-04-14T16:49:16.527Z,13.13
2019-04-14T16:51:49.596Z,13.34
2019-04-14T16:54:46.643Z,13.22
2019-04-14T16:57:37.358Z,13.17
2019-04-14T17:00:07.859Z,13.11
2019-04-14T17:02:36.388Z,12.98
2019-04-14T17:05:05.336Z,12.86
2019-04-14T17:07:33.975Z,13.06
2019-04-14T17:10:02.904Z,13.02
2019-04-14T17:12:31.703Z,13.05
2019-04-14T17:15:10.850Z,13.18
2019-04-14T17:18:05.010Z,12.98
2019-04-14T17:20:51.291Z,13.12
2019-04-14T17:23:34.150Z,13.11
2019-04-14T17:26:08.564Z,12.98
2019-04-14T17:28:59.428Z,12.95
2019-04-14T17:32:02.583Z,12.93
2019-04-14T17:34:56.593Z,12.91
2019-04-14T17:37:43.155Z,12.90
2019-04-14T17:40:25.244Z,12.88
2019-04-14T17:43:16.604Z,13.00
2019-04-14T17:45:57.608Z,12.90
2019-04-14T17:48:44.298Z,13.07
2019-04-14T17:51:18.463Z,12.80
2019-04-14T17:54:29.028Z,12.90
2019-04-14T17:56:59.182Z,12.80
2019-04-14T17:59:49.808Z,12.73
2019-04-14T18:02:29.286Z,12.69
2019-04-14T18:05:09.939Z,12.63
2019-04-14T18:07:43.640Z,12.64
2019-04-14T18:10:17.883Z,12.39
2019-04-14T18:13:21.353Z,12.56
2019-04-14T18:16:00.927Z,12.46
2019-04-14T18:18:52.855Z,12.40
2019-04-14T18:21:21.524Z,12.43
2019-04-14T18:23:50.074Z,12.54
2019-04-14T18:26:18.680Z,12.42
2019-04-14T18:28:52.098Z,12.31
2019-04-14T18:31:49.044Z,12.40
2019-04-14T18:34:45.852Z,12.45
2019-04-14T18:37:32.577Z,12.25
2019-04-14T18:40:23.258Z,12.16
2019-04-14T18:43:12.735Z,12.10
2019-04-14T18:46:06.978Z,12.24
2019-04-14T18:49:00.963Z,12.14
2019-04-14T18:51:42.290Z,12.20
2019-04-14T18:54:26.843Z,11.99
2019-04-14T18:57:17.529Z,11.97
2019-04-14T18:59:56.581Z,12.01
2019-04-14T19:02:24.999Z,12.04
2019-04-14T19:04:53.607Z,12.15
2019-04-14T19:07:22.133Z,11.93
2019-04-14T19:09:50.811Z,11.99
2019-04-14T19:12:42.570Z,11.96
2019-04-14T19:15:29.497Z,11.76
2019-04-14T19:18:17.597Z,11.92
2019-04-14T19:20:50.986Z,11.73
2019-04-14T19:23:19.462Z,11.90
2019-04-14T19:25:48.123Z,11.56
2019-04-14T19:28:16.700Z,11.73
2019-04-14T19:30:45.283Z,11.84
2019-04-14T19:33:13.969Z,11.84
2019-04-14T19:35:42.529Z,11.70
2019-04-14T19:38:11.172Z,11.93
2019-04-14T19:40:39.706Z,11.93
2019-04-14T19:43:08.492Z,11.81
2019-04-14T19:45:37.293Z,11.93
2019-04-14T19:48:05.974Z,11.88
2019-04-14T19:50:34.708Z,12.00
2019-04-14T19:53:03.525Z,12.02
2019-04-14T19:55:32.138Z,11.86
2019-04-14T19:58:00.973Z,11.75
2019-04-14T20:00:29.598Z,11.57
2019-04-14T20:02:58.235Z,11.43
2019-04-14T20:05:26.793Z,11.69
2019-04-14T20:07:55.352Z,11.73
2019-04-14T20:10:23.986Z,11.80
2019-04-14T20:12:52.666Z,11.65
2019-04-14T20:15:34.285Z,11.78
2019-04-14T20:18:22.419Z,11.79
2019-04-14T20:21:08.885Z,11.78
2019-04-14T20:24:02.031Z,11.79
2019-04-14T20:26:50.126Z,11.73
2019-04-14T20:29:25.058Z,11.65
2019-04-14T20:32:00.350Z,11.52
2019-04-14T20:34:28.849Z,11.43
2019-04-14T20:36:57.511Z,11.67
2019-04-14T20:39:27.943Z,11.65
2019-04-14T20:41:56.664Z,11.57
2019-04-14T20:44:25.111Z,11.78
2019-04-14T20:46:53.607Z,11.58
2019-04-14T20:49:22.255Z,11.54
2019-04-14T20:51:50.682Z,11.48
2019-04-14T20:54:19.348Z,11.54
2019-04-14T20:56:47.920Z,11.52
2019-04-14T20:59:16.451Z,11.51
2019-04-14T21:01:52.032Z,11.48
2019-04-14T21:04:37.728Z,11.57
2019-04-14T21:07:37.617Z,11.51
2019-04-14T21:10:25.982Z,11.49
2019-04-14T21:13:16.726Z,11.56
2019-04-14T21:15:53.738Z,11.53
2019-04-14T21:18:28.992Z,11.54
2019-04-14T21:21:19.770Z,11.52
2019-04-14T21:24:05.889Z,11.31
2019-04-14T21:26:47.175Z,11.55
2019-04-14T21:29:41.314Z,11.56
2019-04-14T21:32:18.633Z,11.50
2019-04-14T21:35:12.545Z,11.52
2019-04-14T21:38:06.481Z,11.53
2019-04-14T21:40:50.019Z,11.61
2019-04-14T21:43:18.510Z,11.56
2019-04-14T21:45:47.110Z,11.50
2019-04-14T21:48:15.536Z,11.60
2019-04-14T21:50:44.033Z,11.66
2019-04-14T21:53:12.443Z,11.52
2019-04-14T21:55:40.961Z,11.42
2019-04-14T21:58:29.098Z,11.20
2019-04-14T22:01:51.360Z,11.17
2019-04-14T22:04:39.087Z,11.34
2019-04-14T22:07:45.432Z,11.33
2019-04-14T22:10:33.511Z,11.44
2019-04-14T22:13:02.128Z,11.26
2019-04-14T22:15:30.740Z,11.45
2019-04-14T22:18:00.165Z,11.50
2019-04-14T22:20:28.772Z,11.45
2019-04-14T22:22:58.372Z,11.44
2019-04-14T22:25:26.991Z,11.29
2019-04-14T22:27:55.496Z,11.42
2019-04-14T22:30:23.913Z,11.30
2019-04-14T22:32:52.328Z,11.33
2019-04-14T22:35:20.865Z,11.49
2019-04-14T22:37:49.486Z,11.42
2019-04-14T22:40:18.042Z,11.13
2019-04-14T22:42:46.622Z,11.01
2019-04-14T22:45:15.229Z,10.93
2019-04-14T22:47:43.792Z,11.21
2019-04-14T22:50:12.434Z,11.33
2019-04-14T22:52:40.965Z,11.33
2019-04-14T22:55:09.368Z,11.52
2019-04-14T22:57:37.882Z,11.54
2019-04-14T23:00:09.186Z,11.51
2019-04-14T23:03:09.581Z,11.26
2019-04-14T23:06:03.433Z,11.16
2019-04-14T23:08:49.049Z,11.31
2019-04-14T23:11:36.038Z,11.44
2019-04-14T23:14:27.776Z,11.38
2019-04-14T23:17:15.828Z,11.38
2019-04-14T23:19:56.283Z,11.14
2019-04-14T23:22:47.146Z,11.11
2019-04-14T23:25:15.869Z,11.19
2019-04-14T23:27:44.634Z,10.91
2019-04-14T23:30:13.498Z,11.05
2019-04-14T23:32:41.984Z,10.91
2019-04-14T23:35:10.499Z,11.11
2019-04-14T23:37:39.084Z,11.16
2019-04-14T23:40:08.307Z,11.32
2019-04-14T23:42:36.823Z,11.22
2019-04-14T23:45:05.594Z,11.11
2019-04-14T23:47:34.142Z,11.18
2019-04-14T23:50:02.826Z,11.31
2019-04-14T23:52:31.512Z,11.35
2019-04-14T23:55:00.155Z,11.17
2019-04-14T23:57:28.625Z,11.03
2019-04-14T23:59:57.263Z,10.85
